createdAt,value
2019-03-12T00:02:51.022Z,-0.90
2019-03-12T00:07:58.218Z,-1.10
2019-03-12T00:13:05.934Z,-1.10
2019-03-12T00:18:12.977Z,-1.20
2019-03-12T00:23:20.238Z,-1.30
2019-03-12T00:28:27.416Z,-1.50
2019-03-12T00:33:34.635Z,-1.60
2019-03-12T00:38:41.843Z,-1.70
2019-03-12T00:43:49.010Z,-1.70
2019-03-12T00:48:56.307Z,-1.80
2019-03-12T00:54:03.447Z,-1.60
2019-03-12T00:59:10.557Z,-1.60
2019-03-12T01:09:27.022Z,-1.70
2019-03-12T01:14:34.232Z,-1.80
2019-03-12T01:19:42.098Z,-1.80
2019-03-12T01:24:49.841Z,-1.80
2019-03-12T01:29:57.041Z,-1.80
2019-03-12T01:35:05.206Z,-1.90
2019-03-12T01:40:13.316Z,-1.90
2019-03-12T01:45:20.476Z,-1.90
2019-03-12T01:50:27.616Z,-1.90
2019-03-12T01:55:34.805Z,-1.80
2019-03-12T02:00:42.129Z,-1.80
2019-03-12T02:05:49.306Z,-1.70
2019-03-12T02:10:56.715Z,-1.60
2019-03-12T02:16:04.285Z,-1.60
2019-03-12T02:21:11.580Z,-1.50
2019-03-12T02:26:18.769Z,-1.50
2019-03-12T02:31:26.060Z,-1.40
2019-03-12T02:36:33.445Z,-1.20
2019-03-12T02:41:40.922Z,-1.20
2019-03-12T02:46:48.173Z,-1.10
2019-03-12T02:51:55.485Z,-1.10
2019-03-12T02:57:02.644Z,-1.10
2019-03-12T03:02:10.130Z,-1.20
2019-03-12T03:07:21.822Z,-1.40
2019-03-12T03:12:29.117Z,-1.50
2019-03-12T03:17:36.405Z,-1.50
2019-03-12T03:22:43.509Z,-1.60
2019-03-12T03:27:50.658Z,-1.70
2019-03-12T03:32:57.947Z,-1.60
2019-03-12T03:38:05.929Z,-1.60
2019-03-12T03:43:13.066Z,-1.70
2019-03-12T03:48:21.241Z,-1.70
2019-03-12T03:53:28.470Z,-1.70
2019-03-12T03:58:35.811Z,-1.70
2019-03-12T04:03:43.993Z,-1.60
2019-03-12T04:08:51.242Z,-1.70
2019-03-12T04:13:58.343Z,-1.80
2019-03-12T04:19:05.692Z,-1.80
2019-03-12T04:24:13.300Z,-1.80
2019-03-12T04:29:20.562Z,-1.80
2019-03-12T04:34:31.558Z,-1.90
2019-03-12T04:39:39.697Z,-2.00
2019-03-12T04:44:46.740Z,-2.00
2019-03-12T04:49:53.850Z,-2.00
2019-03-12T04:55:01.016Z,-2.10
2019-03-12T05:00:10.064Z,-2.20
2019-03-12T05:05:18.051Z,-2.30
2019-03-12T05:10:25.365Z,-2.40
2019-03-12T05:15:32.429Z,-2.40
2019-03-12T05:20:39.522Z,-2.40
2019-03-12T05:25:46.727Z,-2.50
2019-03-12T05:30:54.176Z,-2.60
2019-03-12T05:36:01.275Z,-2.50
2019-03-12T05:41:08.352Z,-2.60
2019-03-12T05:46:15.974Z,-2.50
2019-03-12T05:51:23.136Z,-2.40
2019-03-12T05:56:30.863Z,-2.30
2019-03-12T06:01:38.314Z,-2.10
2019-03-12T06:06:45.909Z,-1.90
2019-03-12T06:11:53.131Z,-1.70
2019-03-12T06:17:01.551Z,-1.50
2019-03-12T06:22:11.464Z,-1.30
2019-03-12T06:27:19.167Z,-1.00
2019-03-12T06:32:36.087Z,-0.80
2019-03-12T06:38:08.761Z,-0.60
2019-03-12T06:43:25.393Z,-0.40
2019-03-12T06:48:52.989Z,-0.20
2019-03-12T06:54:11.878Z,0.00
2019-03-12T06:59:45.792Z,0.20
2019-03-12T07:05:18.026Z,0.40
2019-03-12T07:10:43.128Z,0.70
2019-03-12T07:15:55.915Z,0.80
2019-03-12T07:21:21.973Z,1.00
2019-03-12T07:26:47.164Z,1.20
2019-03-12T07:32:11.964Z,1.50
2019-03-12T07:37:40.822Z,1.70
2019-03-12T07:43:07.479Z,1.80
2019-03-12T07:48:25.381Z,2.00
2019-03-12T07:53:59.341Z,2.20
2019-03-12T07:59:18.714Z,2.40
2019-03-12T08:04:47.709Z,2.60
2019-03-12T08:10:33.859Z,2.90
2019-03-12T08:16:07.328Z,3.00
2019-03-12T08:21:30.577Z,2.90
2019-03-12T08:26:57.737Z,2.90
2019-03-12T08:32:27.719Z,3.00
2019-03-12T08:37:42.985Z,3.30
2019-03-12T08:43:03.101Z,3.60
2019-03-12T08:48:15.959Z,3.80
2019-03-12T08:53:50.133Z,3.70
2019-03-12T08:59:16.342Z,3.50
2019-03-12T09:04:41.126Z,3.60
2019-03-12T09:10:16.568Z,4.10
2019-03-12T09:15:32.747Z,4.10
2019-03-12T09:21:04.672Z,4.10
2019-03-12T09:26:33.655Z,3.90
2019-03-12T09:32:02.547Z,3.80
2019-03-12T09:37:27.251Z,4.00
2019-03-12T09:43:08.607Z,4.10
2019-03-12T09:48:37.448Z,4.40
2019-03-12T09:54:11.738Z,4.80
2019-03-12T09:59:36.401Z,5.10
2019-03-12T10:05:11.743Z,5.00
2019-03-12T10:10:50.350Z,4.90
2019-03-12T10:16:15.468Z,4.70
2019-03-12T10:21:54.038Z,4.80
2019-03-12T10:27:25.890Z,5.10
2019-03-12T10:33:04.791Z,5.00
2019-03-12T10:39:12.943Z,4.90
2019-03-12T10:44:45.143Z,4.60
2019-03-12T10:49:52.661Z,4.10
2019-03-12T10:55:12.243Z,3.80
2019-03-12T11:00:10.918Z,3.70
2019-03-12T11:05:18.844Z,3.70
2019-03-12T11:10:26.263Z,4.00
2019-03-12T11:15:34.268Z,4.30
2019-03-12T11:20:43.150Z,4.70
2019-03-12T11:25:50.433Z,5.00
2019-03-12T11:30:57.935Z,5.40
2019-03-12T11:36:06.142Z,5.40
2019-03-12T11:41:13.361Z,5.20
2019-03-12T11:46:21.074Z,5.10
2019-03-12T11:51:28.408Z,5.20
2019-03-12T11:56:36.699Z,5.40
2019-03-12T12:01:44.270Z,5.40
2019-03-12T12:06:51.634Z,5.20
2019-03-12T12:12:00.538Z,5.10
2019-03-12T12:17:07.965Z,5.00
2019-03-12T12:22:15.178Z,5.00
2019-03-12T12:27:22.466Z,5.00
2019-03-12T12:32:29.756Z,5.10
2019-03-12T12:37:37.239Z,5.30
2019-03-12T12:42:44.419Z,5.80
2019-03-12T12:47:51.663Z,6.40
2019-03-12T12:52:58.923Z,6.90
2019-03-12T12:58:09.168Z,7.20
2019-03-12T13:03:16.453Z,8.90
2019-03-12T13:08:24.819Z,10.60
2019-03-12T13:13:33.945Z,11.30
2019-03-12T13:18:41.209Z,9.80
2019-03-12T13:23:48.787Z,9.80
2019-03-12T13:28:56.720Z,10.40
2019-03-12T13:34:03.924Z,9.50
2019-03-12T13:39:11.337Z,8.80
2019-03-12T13:44:20.214Z,10.10
2019-03-12T13:49:27.661Z,11.00
2019-03-12T13:54:34.907Z,10.60
2019-03-12T13:59:42.255Z,9.80
2019-03-12T14:04:49.587Z,10.50
2019-03-12T14:09:56.737Z,12.80
2019-03-12T14:15:06.854Z,15.70
2019-03-12T14:20:37.045Z,16.50
2019-03-12T14:25:45.065Z,13.80
2019-03-12T14:30:52.853Z,11.70
2019-03-12T14:36:00.132Z,11.70
2019-03-12T14:41:08.082Z,11.30
2019-03-12T14:46:15.552Z,9.90
2019-03-12T14:51:32.769Z,9.30
2019-03-12T14:56:40.287Z,10.10
2019-03-12T15:01:47.655Z,10.80
2019-03-12T15:06:54.953Z,11.30
2019-03-12T15:12:02.175Z,11.70
2019-03-12T15:17:09.480Z,11.00
2019-03-12T15:22:16.653Z,10.70
2019-03-12T15:27:23.658Z,10.60
2019-03-12T15:32:30.785Z,10.30
2019-03-12T15:37:37.853Z,10.40
2019-03-12T15:42:44.973Z,9.00
2019-03-12T15:47:53.087Z,7.90
2019-03-12T15:53:00.298Z,7.40
2019-03-12T15:58:07.559Z,6.90
2019-03-12T16:03:14.647Z,6.70
2019-03-12T16:08:21.741Z,6.40
2019-03-12T16:13:32.569Z,6.10
2019-03-12T16:18:39.690Z,5.80
2019-03-12T16:23:46.780Z,5.60
2019-03-12T16:28:53.977Z,5.30
2019-03-12T16:34:01.582Z,5.10
2019-03-12T16:39:08.825Z,4.90
2019-03-12T16:44:16.351Z,4.80
2019-03-12T16:49:23.460Z,4.60
2019-03-12T16:54:30.721Z,4.40
2019-03-12T16:59:38.008Z,4.20
2019-03-12T17:04:45.120Z,4.00
2019-03-12T17:09:52.188Z,4.00
2019-03-12T17:15:00.863Z,3.80
2019-03-12T17:20:11.255Z,3.70
2019-03-12T17:25:18.406Z,3.70
2019-03-12T17:30:25.546Z,3.50
2019-03-12T17:35:32.703Z,3.20
2019-03-12T17:40:39.870Z,3.10
2019-03-12T17:45:47.160Z,2.90
2019-03-12T17:50:54.413Z,2.80
2019-03-12T17:56:01.635Z,2.70
2019-03-12T18:01:08.722Z,2.50
2019-03-12T18:06:15.851Z,2.50
2019-03-12T18:11:22.981Z,2.40
2019-03-12T18:16:40.574Z,2.40
2019-03-12T18:21:39.420Z,2.30
2019-03-12T18:26:46.552Z,2.30
2019-03-12T18:31:53.822Z,2.40
2019-03-12T18:37:02.405Z,2.30
2019-03-12T18:42:09.563Z,2.20
2019-03-12T18:47:19.062Z,2.20
2019-03-12T18:52:25.546Z,2.20
2019-03-12T18:57:32.763Z,2.20
2019-03-12T19:02:39.891Z,2.20
2019-03-12T19:07:47.110Z,2.10
2019-03-12T19:12:54.249Z,2.10
2019-03-12T19:18:01.520Z,2.10
2019-03-12T19:23:08.920Z,2.10
2019-03-12T19:28:16.153Z,2.00
2019-03-12T19:33:23.932Z,1.80
2019-03-12T19:38:31.031Z,1.70
2019-03-12T19:43:38.197Z,1.60
2019-03-12T19:48:46.729Z,1.50
2019-03-12T19:53:53.931Z,1.40
2019-03-12T19:59:01.046Z,1.40
2019-03-12T20:04:08.400Z,1.40
2019-03-12T20:09:24.898Z,1.40
2019-03-12T20:15:14.648Z,1.30
2019-03-12T20:21:12.107Z,1.30
2019-03-12T20:27:26.259Z,1.30
2019-03-12T20:33:19.230Z,1.30
2019-03-12T20:39:11.165Z,1.30
2019-03-12T20:44:54.815Z,1.40
2019-03-12T20:50:39.049Z,1.50
2019-03-12T20:56:29.077Z,1.60
2019-03-12T21:02:29.091Z,1.80
2019-03-12T21:08:20.705Z,1.90
2019-03-12T21:14:05.898Z,1.90
2019-03-12T21:19:55.832Z,1.90
2019-03-12T21:25:16.984Z,1.90
2019-03-12T21:30:28.838Z,2.00
2019-03-12T21:35:37.563Z,2.00
2019-03-12T21:40:45.331Z,2.00
2019-03-12T21:45:52.741Z,2.00
2019-03-12T21:50:59.876Z,2.00
2019-03-12T21:56:07.155Z,2.00
2019-03-12T22:01:14.613Z,1.90
2019-03-12T22:06:21.907Z,1.90
2019-03-12T22:11:29.585Z,1.80
2019-03-12T22:16:42.199Z,1.80
2019-03-12T22:22:03.510Z,1.80
2019-03-12T22:27:11.086Z,1.80
2019-03-12T22:32:18.288Z,1.70
2019-03-12T22:37:25.748Z,1.70
2019-03-12T22:42:32.982Z,1.70
2019-03-12T22:47:40.212Z,1.60
2019-03-12T22:52:47.391Z,1.60
2019-03-12T22:57:55.201Z,1.60
2019-03-12T23:03:20.994Z,1.60
2019-03-12T23:08:46.195Z,1.60
2019-03-12T23:13:54.934Z,1.70
2019-03-12T23:19:03.136Z,1.70
2019-03-12T23:24:10.681Z,1.70
2019-03-12T23:29:19.376Z,1.80
2019-03-12T23:34:26.610Z,1.80
2019-03-12T23:39:34.795Z,1.90
2019-03-12T23:44:42.929Z,1.90
2019-03-12T23:49:51.201Z,2.00
2019-03-12T23:54:58.770Z,2.00
